Time;durP1;ratioP1;P1;durP2;ratioP2;P2;SDS_P1;SDS_P2;PMS_P1;PMS_P2;Temp;Humidity;BMP_temperature;BMP_pressure;BME280_temperature;BME280_humidity;BME280_pressure;Samples;Min_cycle;Max_cycle;Signal;HPM_P1;HPM_P2
2022/08/06 00:00:45;;;;;;;1.70;1.60;;;16.10;99.90;;;;;;4926476;28;20180;-77
2022/08/06 00:03:10;;;;;;;2.27;2.03;;;16.00;99.90;;;;;;4926170;28;20231;-77
2022/08/06 00:05:36;;;;;;;1.80;1.70;;;15.90;99.90;;;;;;4925900;28;20205;-77
2022/08/06 00:08:01;;;;;;;3.40;2.00;;;15.80;99.90;;;;;;4941691;28;20177;-77
2022/08/06 00:10:27;;;;;;;3.43;2.63;;;15.60;99.90;;;;;;4957788;28;20287;-77
2022/08/06 00:12:53;;;;;;;2.30;2.10;;;15.80;99.90;;;;;;4941936;28;20173;-77
2022/08/06 00:15:18;;;;;;;3.23;1.77;;;15.90;99.90;;;;;;4941531;28;20188;-77
2022/08/06 00:17:47;;;;;;;2.40;1.90;;;15.90;99.90;;;;;;4925742;28;20176;-77
2022/08/06 00:20:15;;;;;;;2.70;1.80;;;15.80;99.90;;;;;;5011872;23;20227;-78
2022/08/06 00:22:41;;;;;;;2.00;1.90;;;15.90;99.90;;;;;;4995740;28;20182;-78
2022/08/06 00:25:09;;;;;;;3.07;1.90;;;15.90;99.90;;;;;;4963482;28;20179;-78
2022/08/06 00:27:35;;;;;;;2.20;1.70;;;15.90;99.90;;;;;;4995533;28;20171;-78
2022/08/06 00:30:01;;;;;;;3.03;1.87;;;15.90;99.90;;;;;;4979387;28;20195;-78
2022/08/06 00:32:27;;;;;;;3.23;2.03;;;15.80;99.90;;;;;;4995670;28;20625;-78
2022/08/06 00:34:53;;;;;;;3.67;1.80;;;15.80;99.90;;;;;;4995678;28;20234;-78
2022/08/06 00:37:18;;;;;;;3.77;1.90;;;15.80;99.90;;;;;;4963130;28;20178;-78
2022/08/06 00:39:44;;;;;;;2.20;2.00;;;15.80;99.90;;;;;;4995528;28;20195;-78
2022/08/06 00:42:09;;;;;;;2.40;2.10;;;15.80;99.90;;;;;;4979343;28;20286;-78
2022/08/06 00:44:35;;;;;;;2.00;1.70;;;15.90;99.90;;;;;;4962922;28;20183;-78
2022/08/06 00:47:01;;;;;;;3.00;1.90;;;15.80;99.90;;;;;;4995412;28;20179;-78
2022/08/06 00:49:27;;;;;;;1.83;1.73;;;15.80;99.90;;;;;;4995159;28;20198;-78
2022/08/06 00:51:52;;;;;;;2.30;2.10;;;15.90;99.90;;;;;;4979148;28;20630;-78
2022/08/06 00:54:21;;;;;;;2.33;1.87;;;15.90;99.90;;;;;;4963351;28;20265;-78
2022/08/06 00:56:47;;;;;;;1.90;1.80;;;15.90;99.90;;;;;;4994997;28;20261;-78
2022/08/06 00:59:13;;;;;;;2.10;1.90;;;15.80;99.90;;;;;;4995217;28;20244;-78
2022/08/06 01:01:38;;;;;;;1.80;1.70;;;15.70;99.90;;;;;;4978948;28;20654;-78
2022/08/06 01:04:04;;;;;;;2.63;2.00;;;15.80;99.90;;;;;;4963071;28;20266;-78
2022/08/06 01:06:30;;;;;;;2.40;1.80;;;15.60;99.90;;;;;;4995170;28;20695;-78
2022/08/06 01:08:56;;;;;;;3.53;1.80;;;15.50;99.90;;;;;;4962584;28;20206;-78
2022/08/06 01:11:22;;;;;;;2.60;1.73;;;15.40;99.90;;;;;;4995038;28;20217;-78
2022/08/06 01:13:48;;;;;;;2.77;2.20;;;15.50;99.90;;;;;;4994968;28;20175;-78
2022/08/06 01:16:49;;;;;;;2.23;2.10;;;15.50;99.90;;;;;;4994777;28;20185;-78
2022/08/06 01:19:27;;;;;;;2.27;2.07;;;15.30;99.90;;;;;;4978451;28;20218;-78
2022/08/06 01:22:11;;;;;;;2.23;1.80;;;15.40;99.90;;;;;;4994970;28;20179;-78
2022/08/06 01:25:02;;;;;;;2.00;1.90;;;15.40;99.90;;;;;;4994796;28;20546;-78
2022/08/06 01:27:42;;;;;;;3.00;2.00;;;15.20;99.90;;;;;;4994787;28;20175;-78
2022/08/06 01:30:13;;;;;;;2.20;2.00;;;15.00;99.90;;;;;;4994855;28;20609;-78
2022/08/06 01:33:05;;;;;;;2.27;1.90;;;14.90;99.90;;;;;;4979744;28;20187;-78
2022/08/06 01:35:36;;;;;;;3.40;2.13;;;15.00;99.90;;;;;;4988678;28;20257;-78
2022/08/06 01:38:11;;;;;;;2.47;2.00;;;15.20;99.90;;;;;;4982446;28;20179;-78
2022/08/06 01:40:38;;;;;;;3.57;2.00;;;15.10;99.90;;;;;;4998895;28;20182;-78
2022/08/06 01:43:08;;;;;;;2.10;1.90;;;15.10;99.90;;;;;;4998818;28;20183;-78
2022/08/06 01:45:36;;;;;;;2.70;1.90;;;15.20;99.90;;;;;;4966859;28;20197;-78
2022/08/06 01:48:06;;;;;;;2.37;2.03;;;15.30;99.90;;;;;;4966562;28;20190;-78
2022/08/06 01:50:36;;;;;;;2.20;1.90;;;15.30;99.90;;;;;;4998542;28;20276;-78
2022/08/06 01:53:04;;;;;;;2.93;2.00;;;15.20;99.90;;;;;;4982304;28;20183;-78
2022/08/06 01:55:41;;;;;;;2.77;2.00;;;15.00;99.90;;;;;;4998287;28;20642;-78
2022/08/06 01:58:09;;;;;;;1.93;1.80;;;14.90;99.90;;;;;;4982162;28;20183;-78
2022/08/06 02:00:40;;;;;;;2.53;1.80;;;14.90;99.90;;;;;;4998449;28;20187;-78
2022/08/06 02:03:21;;;;;;;2.83;1.87;;;14.90;99.90;;;;;;4982636;28;20186;-78
2022/08/06 02:05:48;;;;;;;2.50;1.90;;;14.90;99.90;;;;;;5015861;28;20175;-78
2022/08/06 02:08:18;;;;;;;4.03;2.00;;;14.80;99.90;;;;;;4982118;28;20282;-78
2022/08/06 02:10:45;;;;;;;2.50;2.00;;;14.80;99.90;;;;;;4981953;28;20215;-78
2022/08/06 02:13:14;;;;;;;1.60;1.50;;;15.00;99.90;;;;;;4982254;28;20185;-78
2022/08/06 02:15:42;;;;;;;1.90;1.70;;;15.10;99.90;;;;;;4966175;28;20175;-78
2022/08/06 02:18:10;;;;;;;2.33;1.80;;;15.10;99.90;;;;;;4981708;28;20183;-78
2022/08/06 02:20:40;;;;;;;1.80;1.70;;;15.10;99.90;;;;;;4965685;28;20206;-78
2022/08/06 02:23:10;;;;;;;1.60;1.50;;;14.90;99.90;;;;;;4998128;28;20221;-78
2022/08/06 02:25:39;;;;;;;1.90;1.80;;;14.90;99.90;;;;;;4982364;28;20193;-78
2022/08/06 02:28:06;;;;;;;1.73;1.50;;;15.00;99.90;;;;;;4981793;28;20187;-78
2022/08/06 02:30:40;;;;;;;2.10;1.40;;;14.90;99.90;;;;;;4997719;28;20214;-78
2022/08/06 02:33:07;;;;;;;1.70;1.50;;;14.80;99.90;;;;;;4965929;28;20298;-78
2022/08/06 02:35:39;;;;;;;2.27;1.77;;;14.70;99.90;;;;;;4981754;28;20175;-78
2022/08/06 02:38:13;;;;;;;1.83;1.67;;;14.70;99.90;;;;;;4998451;28;20178;-78
2022/08/06 02:40:46;;;;;;;2.07;1.87;;;14.80;99.90;;;;;;4997820;28;20214;-78
2022/08/06 02:43:16;;;;;;;1.90;1.70;;;14.70;99.90;;;;;;4997669;28;20536;-78
2022/08/06 02:45:55;;;;;;;3.37;1.77;;;14.60;99.90;;;;;;4982053;28;20642;-78
2022/08/06 02:48:35;;;;;;;3.10;1.80;;;14.50;99.90;;;;;;4981061;28;20183;-78
2022/08/06 02:51:07;;;;;;;2.70;1.80;;;14.40;99.90;;;;;;4997381;28;20297;-78
2022/08/06 02:53:43;;;;;;;3.17;2.17;;;14.50;99.90;;;;;;4997444;28;20212;-78
2022/08/06 02:56:13;;;;;;;1.70;1.60;;;14.50;99.90;;;;;;4997290;28;20174;-78
2022/08/06 02:58:45;;;;;;;2.83;1.83;;;14.60;99.90;;;;;;4997307;28;20237;-78
2022/08/06 03:01:22;;;;;;;3.20;1.80;;;14.50;99.90;;;;;;4997525;28;20183;-78
2022/08/06 03:03:51;;;;;;;2.43;1.70;;;14.50;99.90;;;;;;4997434;28;20527;-78
2022/08/06 03:06:19;;;;;;;2.20;1.83;;;14.40;99.90;;;;;;4981099;28;20213;-78
2022/08/06 03:08:46;;;;;;;2.07;1.77;;;14.70;99.90;;;;;;4981078;28;20257;-78
2022/08/06 03:11:13;;;;;;;2.93;1.97;;;14.60;99.90;;;;;;4980979;28;20214;-78
2022/08/06 03:13:41;;;;;;;2.67;1.90;;;14.60;99.90;;;;;;4981290;28;20183;-78
2022/08/06 03:16:08;;;;;;;1.70;1.60;;;14.50;99.90;;;;;;4997026;28;20175;-78
2022/08/06 03:18:35;;;;;;;1.80;1.70;;;14.40;99.90;;;;;;4980619;28;20305;-78
2022/08/06 03:21:02;;;;;;;2.40;1.67;;;14.50;99.90;;;;;;4980893;28;20627;-78
2022/08/06 03:23:30;;;;;;;1.47;1.33;;;14.50;99.90;;;;;;4980721;28;20581;-78
2022/08/06 03:25:57;;;;;;;2.17;1.60;;;14.40;99.90;;;;;;4964595;28;20194;-78
2022/08/06 03:28:25;;;;;;;2.37;1.70;;;14.10;99.90;;;;;;4980820;28;20182;-78
2022/08/06 03:30:52;;;;;;;1.50;1.40;;;14.10;99.90;;;;;;4980643;28;20280;-78
2022/08/06 03:33:19;;;;;;;1.83;1.40;;;14.00;99.90;;;;;;4996897;28;20179;-78
2022/08/06 03:35:45;;;;;;;2.47;1.70;;;13.90;99.90;;;;;;4980770;28;20183;-78
2022/08/06 03:38:13;;;;;;;2.90;1.77;;;13.80;99.90;;;;;;4996479;28;20172;-78
2022/08/06 03:40:42;;;;;;;2.00;1.80;;;13.80;99.90;;;;;;4980461;28;20653;-78
2022/08/06 03:43:08;;;;;;;3.90;1.87;;;13.90;99.90;;;;;;4980363;28;20230;-78
2022/08/06 03:45:37;;;;;;;2.63;1.63;;;13.90;99.90;;;;;;4996702;28;20212;-78
2022/08/06 03:48:05;;;;;;;2.43;1.90;;;14.00;99.90;;;;;;4980034;28;20233;-78
2022/08/06 03:50:43;;;;;;;1.70;1.60;;;13.90;99.90;;;;;;4980369;28;20194;-78
2022/08/06 03:53:12;;;;;;;1.80;1.70;;;13.80;99.90;;;;;;4996424;28;20179;-78
2022/08/06 03:55:39;;;;;;;2.30;1.80;;;13.80;99.90;;;;;;4979655;28;20585;-78
2022/08/06 03:58:08;;;;;;;2.07;1.90;;;13.80;99.90;;;;;;4979899;28;20190;-78
2022/08/06 04:00:40;;;;;;;2.37;1.60;;;13.70;99.90;;;;;;4979931;28;20244;-78
2022/08/06 04:03:08;;;;;;;1.87;1.60;;;13.50;99.90;;;;;;4996285;28;20764;-78
2022/08/06 04:05:36;;;;;;;1.63;1.50;;;13.60;99.90;;;;;;4979956;28;20549;-78
2022/08/06 04:08:07;;;;;;;1.40;1.20;;;13.70;99.90;;;;;;4996004;28;20183;-78
2022/08/06 04:10:37;;;;;;;1.40;1.30;;;13.70;99.90;;;;;;4979737;28;20175;-78
2022/08/06 04:13:08;;;;;;;1.90;1.80;;;13.70;99.90;;;;;;4979786;28;20198;-78
2022/08/06 04:15:36;;;;;;;2.33;1.80;;;13.60;99.90;;;;;;4995932;28;20207;-78
2022/08/06 04:18:04;;;;;;;1.83;1.73;;;13.60;99.90;;;;;;4979802;28;20446;-78
2022/08/06 04:20:31;;;;;;;2.13;1.80;;;13.70;99.90;;;;;;4979561;28;20224;-78
2022/08/06 04:22:57;;;;;;;2.20;1.80;;;13.60;99.90;;;;;;4963890;28;20237;-78
2022/08/06 04:25:24;;;;;;;2.67;1.90;;;13.70;99.90;;;;;;4963664;28;20179;-78
2022/08/06 04:27:50;;;;;;;2.20;1.87;;;13.50;99.90;;;;;;4995676;28;20650;-78
2022/08/06 04:30:16;;;;;;;2.90;1.70;;;13.70;99.90;;;;;;4979909;28;20214;-78
2022/08/06 04:32:45;;;;;;;2.40;1.73;;;13.80;99.90;;;;;;4979636;28;20215;-78
2022/08/06 04:35:11;;;;;;;1.93;1.77;;;13.90;99.90;;;;;;4979843;28;20190;-78
2022/08/06 04:37:37;;;;;;;3.10;2.20;;;14.10;99.90;;;;;;4979411;28;20179;-78
2022/08/06 04:40:03;;;;;;;2.20;1.80;;;14.00;99.90;;;;;;4979181;28;20204;-78
2022/08/06 04:42:29;;;;;;;1.80;1.70;;;13.70;99.90;;;;;;4979884;28;20218;-78
2022/08/06 04:44:55;;;;;;;2.83;1.87;;;13.50;99.90;;;;;;4995403;28;20214;-78
2022/08/06 04:47:22;;;;;;;2.10;2.00;;;13.50;99.90;;;;;;4979188;28;20190;-78
2022/08/06 04:49:49;;;;;;;2.43;2.20;;;13.50;99.90;;;;;;4979407;28;20250;-78
2022/08/06 04:52:23;;;;;;;2.50;1.80;;;13.60;99.90;;;;;;4963074;28;20247;-78
2022/08/06 04:54:48;;;;;;;1.77;1.40;;;13.50;99.90;;;;;;4995301;28;20543;-78
2022/08/06 04:57:14;;;;;;;1.80;1.50;;;13.40;99.90;;;;;;4979111;28;20179;-78
2022/08/06 04:59:39;;;;;;;1.80;1.70;;;13.10;99.90;;;;;;4979260;28;20614;-78
2022/08/06 05:02:05;;;;;;;1.80;1.70;;;13.00;99.90;;;;;;4963167;28;20183;-78
2022/08/06 05:04:33;;;;;;;1.70;1.60;;;13.10;99.90;;;;;;4979147;28;20179;-77
2022/08/06 05:07:18;;;;;;;1.73;1.60;;;13.10;99.90;;;;;;4981219;28;20550;-77
2022/08/06 05:09:44;;;;;;;1.70;1.60;;;13.20;99.90;;;;;;4998468;28;20201;-77
2022/08/06 05:12:43;;;;;;;2.37;2.17;;;13.30;99.90;;;;;;4981719;28;20203;-76
2022/08/06 05:15:21;;;;;;;41.20;4.40;;;15.20;99.90;;;;;;4977229;28;20183;-76
2022/08/06 05:17:52;;;;;;;3.20;1.30;;;17.20;99.90;;;;;;4994594;28;20237;-76
2022/08/06 05:20:19;;;;;;;2.10;1.20;;;18.60;99.90;;;;;;4979177;28;20716;-75
2022/08/06 05:22:49;;;;;;;1.57;1.23;;;19.50;99.90;;;;;;4994868;28;20653;-76
2022/08/06 05:25:15;;;;;;;2.73;1.73;;;20.20;99.90;;;;;;4978829;28;20183;-76
2022/08/06 05:27:41;;;;;;;2.57;1.50;;;20.60;99.90;;;;;;4978464;28;20596;-77
2022/08/06 05:30:08;;;;;;;1.70;1.23;;;20.60;99.90;;;;;;4994980;28;20249;-75
2022/08/06 05:32:45;;;;;;;1.52;1.23;;;20.50;99.90;;;;;;4995033;28;20729;-76
2022/08/06 05:35:11;;;;;;;1.30;1.20;;;20.40;99.90;;;;;;4978881;28;20182;-76
2022/08/06 05:37:37;;;;;;;2.47;1.15;;;20.00;99.90;;;;;;4978918;28;20179;-76
2022/08/06 05:40:05;;;;;;;1.73;1.30;;;20.30;99.90;;;;;;4994990;28;20198;-75
2022/08/06 05:42:30;;;;;;;1.77;1.30;;;20.50;99.90;;;;;;4994830;28;20186;-76
2022/08/06 05:44:56;;;;;;;2.15;1.55;;;20.80;99.90;;;;;;4995157;28;20175;-75
2022/08/06 05:47:26;;;;;;;1.92;1.65;;;21.20;99.90;;;;;;4994714;28;20175;-75
2022/08/06 05:50:08;;;;;;;1.70;1.60;;;21.20;99.90;;;;;;4995133;28;20704;-75
2022/08/06 05:52:57;;;;;;;1.40;1.30;;;20.50;99.90;;;;;;4994723;28;20685;-75
2022/08/06 05:55:34;;;;;;;1.52;1.40;;;20.50;99.90;;;;;;4978743;28;20191;-76
2022/08/06 05:58:04;;;;;;;1.92;1.60;;;20.70;99.90;;;;;;4994966;28;20217;-76
2022/08/06 06:00:32;;;;;;;2.97;1.80;;;20.50;99.90;;;;;;4978511;28;20293;-76
2022/08/06 06:03:01;;;;;;;2.40;1.50;;;20.40;99.90;;;;;;4979053;28;20202;-76
2022/08/06 06:05:27;;;;;;;2.58;1.50;;;20.10;99.90;;;;;;4979333;28;20190;-76
2022/08/06 06:07:55;;;;;;;2.00;1.50;;;20.30;99.90;;;;;;4978628;28;20198;-76
2022/08/06 06:10:22;;;;;;;3.35;1.70;;;20.50;99.90;;;;;;4962738;28;20199;-76
2022/08/06 06:12:49;;;;;;;1.83;1.48;;;20.30;99.90;;;;;;4994929;28;20271;-76
2022/08/06 06:15:16;;;;;;;2.08;1.65;;;20.30;99.90;;;;;;4978309;28;20186;-76
2022/08/06 06:18:17;;;;;;;1.83;1.40;;;20.10;99.90;;;;;;4978198;28;20236;-76
2022/08/06 06:21:15;;;;;;;1.90;1.70;;;20.40;99.90;;;;;;4994185;23;20216;-76
2022/08/06 06:23:49;;;;;;;2.35;1.92;;;20.30;99.90;;;;;;4985166;28;20250;-76
2022/08/06 06:26:15;;;;;;;1.75;1.40;;;20.20;99.90;;;;;;4978367;28;20553;-76
2022/08/06 06:29:01;;;;;;;2.70;1.63;;;19.90;99.90;;;;;;4978293;28;20174;-75
2022/08/06 06:31:44;;;;;;;3.58;1.75;;;20.10;99.90;;;;;;4978575;28;20361;-75
2022/08/06 06:34:19;;;;;;;4.15;1.63;;;20.00;99.90;;;;;;4995885;28;20654;-76
2022/08/06 06:37:10;;;;;;;1.55;1.30;;;20.20;99.90;;;;;;4961866;28;20180;-76
2022/08/06 06:40:03;;;;;;;2.03;1.20;;;20.50;99.90;;;;;;4978623;28;20211;-76
2022/08/06 06:42:43;;;;;;;2.97;1.10;;;20.60;99.90;;;;;;4929517;28;20184;-76
2022/08/06 06:45:14;;;;;;;1.52;0.98;;;19.60;99.90;;;;;;4978198;28;20172;-75
2022/08/06 06:47:49;;;;;;;2.00;1.23;;;19.50;99.90;;;;;;4977964;28;20587;-75
2022/08/06 06:50:29;;;;;;;2.03;1.10;;;18.90;99.90;;;;;;4978197;28;20202;-75
2022/08/06 06:52:56;;;;;;;1.10;1.00;;;18.40;99.90;;;;;;4961875;28;20241;-75
2022/08/06 06:55:33;;;;;;;1.90;1.20;;;18.00;99.90;;;;;;4961677;28;20180;-75
2022/08/06 06:58:14;;;;;;;1.13;1.03;;;17.70;99.90;;;;;;4995441;28;20167;-75
2022/08/06 07:00:41;;;;;;;2.27;1.03;;;17.50;99.90;;;;;;4995131;28;20183;-75
2022/08/06 07:03:09;;;;;;;2.10;1.10;;;18.00;99.90;;;;;;4961930;28;20179;-77
2022/08/06 07:05:36;;;;;;;1.63;1.00;;;18.00;99.90;;;;;;4962180;28;20726;-77
2022/08/06 07:08:04;;;;;;;2.40;1.10;;;17.80;99.90;;;;;;4977566;28;20199;-77
2022/08/06 07:10:31;;;;;;;2.10;1.00;;;17.90;99.90;;;;;;4977926;28;20192;-77
2022/08/06 07:12:57;;;;;;;2.37;0.97;;;17.50;99.90;;;;;;4961957;28;20172;-77
2022/08/06 07:15:24;;;;;;;2.37;1.13;;;17.50;99.90;;;;;;4977635;28;20182;-77
2022/08/06 07:17:50;;;;;;;1.00;0.90;;;17.70;99.90;;;;;;4960900;28;20264;-77
2022/08/06 07:20:24;;;;;;;1.57;0.90;;;17.60;99.90;;;;;;4994608;28;20204;-77
2022/08/06 07:22:52;;;;;;;2.40;1.00;;;17.70;99.90;;;;;;4961883;28;20179;-77
2022/08/06 07:25:18;;;;;;;1.47;0.80;;;17.50;99.90;;;;;;4961455;28;20175;-77
2022/08/06 07:27:46;;;;;;;1.70;1.00;;;17.50;99.90;;;;;;4961030;28;20219;-77
2022/08/06 07:30:14;;;;;;;1.77;1.00;;;17.50;99.90;;;;;;4960397;28;20192;-77
2022/08/06 07:32:41;;;;;;;1.00;0.90;;;17.60;99.90;;;;;;4960908;28;20246;-77
2022/08/06 07:35:09;;;;;;;2.03;1.10;;;17.60;99.90;;;;;;4977205;28;20327;-77
2022/08/06 07:37:36;;;;;;;1.27;0.90;;;17.80;99.90;;;;;;4977242;28;20266;-77
2022/08/06 07:40:05;;;;;;;1.10;1.00;;;17.90;99.90;;;;;;4931724;28;20686;-76
2022/08/06 07:42:32;;;;;;;1.63;1.00;;;18.00;99.90;;;;;;4975128;28;20238;-77
2022/08/06 07:45:01;;;;;;;2.77;0.90;;;18.00;99.90;;;;;;4942143;28;20651;-77
2022/08/06 07:47:34;;;;;;;1.00;0.93;;;17.90;99.90;;;;;;4957499;28;20199;-77
2022/08/06 07:50:00;;;;;;;2.07;0.90;;;17.80;99.90;;;;;;4956962;28;20199;-77
2022/08/06 07:52:26;;;;;;;2.00;0.97;;;17.70;99.90;;;;;;4955872;28;20204;-77
2022/08/06 07:54:54;;;;;;;1.90;1.00;;;17.70;99.90;;;;;;4974616;28;20180;-77
2022/08/06 07:57:22;;;;;;;3.50;1.00;;;18.00;99.90;;;;;;4957246;28;20176;-77
2022/08/06 07:59:48;;;;;;;1.17;1.07;;;18.10;99.90;;;;;;4941525;28;20207;-77
2022/08/06 08:02:15;;;;;;;3.00;1.10;;;18.30;99.90;;;;;;4957575;28;20654;-77
2022/08/06 08:07:42;;;;;;;1.87;0.80;;;18.60;99.90;;;;;;4903552;29;20257;-77
2022/08/06 08:10:08;;;;;;;1.90;1.30;;;18.70;99.90;;;;;;4949154;28;20275;-77
2022/08/06 08:12:37;;;;;;;1.37;0.80;;;19.00;99.90;;;;;;4958962;28;20204;-78
2022/08/06 08:15:06;;;;;;;0.77;0.70;;;19.10;99.90;;;;;;4961593;28;20196;-78
2022/08/06 08:17:32;;;;;;;0.90;0.80;;;19.20;99.90;;;;;;4947215;28;20181;-79
2022/08/06 08:20:03;;;;;;;1.90;0.90;;;19.10;99.90;;;;;;4976344;28;20251;-77
2022/08/06 08:22:29;;;;;;;1.33;1.00;;;19.20;99.90;;;;;;4975004;28;20191;-78
2022/08/06 08:24:54;;;;;;;4.27;1.10;;;19.40;99.90;;;;;;4941802;28;20184;-77
2022/08/06 08:27:21;;;;;;;0.80;0.80;;;19.40;99.90;;;;;;4957502;28;20188;-76
2022/08/06 08:29:46;;;;;;;1.43;0.80;;;19.40;99.90;;;;;;4951685;28;20203;-76
2022/08/06 08:32:12;;;;;;;1.67;1.13;;;19.60;99.90;;;;;;4956749;28;20208;-77
2022/08/06 08:34:38;;;;;;;1.90;0.90;;;19.50;99.90;;;;;;4956918;28;20187;-76
2022/08/06 08:37:04;;;;;;;2.53;1.10;;;19.40;99.90;;;;;;4941099;28;20263;-77
2022/08/06 08:39:30;;;;;;;1.17;1.00;;;19.80;99.90;;;;;;4973028;28;20196;-76
2022/08/06 08:42:09;;;;;;;2.10;1.07;;;20.00;99.90;;;;;;4940864;28;20730;-77
2022/08/06 08:44:35;;;;;;;1.03;0.97;;;20.30;99.90;;;;;;4957186;28;20177;-77
2022/08/06 08:47:02;;;;;;;1.57;1.10;;;20.20;99.90;;;;;;4973284;28;20598;-77
2022/08/06 08:49:39;;;;;;;1.80;0.90;;;20.10;99.90;;;;;;4960309;28;20300;-76
2022/08/06 08:52:08;;;;;;;2.70;1.00;;;20.30;99.90;;;;;;4976017;28;20622;-77
2022/08/06 08:54:36;;;;;;;1.13;0.90;;;20.40;99.90;;;;;;4976349;28;20238;-76
2022/08/06 08:57:05;;;;;;;2.57;0.83;;;20.70;99.90;;;;;;4960181;28;20180;-77
2022/08/06 08:59:32;;;;;;;1.53;0.90;;;20.80;99.90;;;;;;4976108;28;20196;-77
2022/08/06 09:01:58;;;;;;;1.02;0.90;;;21.00;99.90;;;;;;4976446;28;20178;-77
2022/08/06 09:04:44;;;;;;;1.10;1.00;;;21.10;99.90;;;;;;4976034;28;20263;-77
2022/08/06 09:07:10;;;;;;;1.20;1.10;;;21.10;99.90;;;;;;4975956;28;20238;-77
2022/08/06 09:09:38;;;;;;;1.95;0.90;;;21.20;99.90;;;;;;4976415;28;20199;-76
2022/08/06 09:12:04;;;;;;;2.15;1.00;;;21.30;99.90;;;;;;4976188;28;20199;-77
2022/08/06 09:14:29;;;;;;;1.65;0.85;;;21.40;99.60;;;;;;4959920;28;20187;-76
2022/08/06 09:16:57;;;;;;;1.60;0.85;;;21.40;98.70;;;;;;4975893;28;20168;-77
2022/08/06 09:19:23;;;;;;;0.93;0.80;;;21.60;98.20;;;;;;4975973;28;20207;-77
2022/08/06 09:21:49;;;;;;;0.77;0.73;;;21.50;98.00;;;;;;4975929;28;20191;-77
2022/08/06 09:24:14;;;;;;;1.55;0.80;;;21.60;99.90;;;;;;4943800;28;20187;-76
2022/08/06 09:27:10;;;;;;;1.42;0.93;;;21.70;98.00;;;;;;4975695;28;20184;-77
2022/08/06 09:29:36;;;;;;;2.08;0.80;;;21.50;98.70;;;;;;4959638;28;20203;-76
2022/08/06 09:32:06;;;;;;;1.15;0.80;;;21.20;98.30;;;;;;4975807;28;20191;-76
2022/08/06 09:34:37;;;;;;;0.85;0.85;;;20.80;99.90;;;;;;4960290;28;20658;-76
2022/08/06 09:37:03;;;;;;;2.38;1.02;;;21.10;99.90;;;;;;4943681;28;20171;-76
2022/08/06 09:39:40;;;;;;;0.77;0.75;;;21.10;99.90;;;;;;4975562;28;20200;-75
2022/08/06 09:42:06;;;;;;;0.70;0.70;;;20.80;99.50;;;;;;4975761;28;20179;-75
2022/08/06 09:44:32;;;;;;;3.78;1.20;;;20.80;98.90;;;;;;4975955;28;20238;-74
2022/08/06 09:47:00;;;;;;;1.77;0.90;;;21.30;98.90;;;;;;4975572;28;20180;-75
2022/08/06 09:49:26;;;;;;;2.35;1.10;;;21.80;99.90;;;;;;4975487;28;20697;-74
2022/08/06 09:52:11;;;;;;;2.35;1.25;;;22.00;96.50;;;;;;4959727;28;20196;-75
2022/08/06 10:01:52;;;;;;;0.93;0.70;;;22.40;92.50;;;;;;4996875;28;20159;-74
2022/08/06 10:04:26;;;;;;;1.77;0.73;;;22.30;92.30;;;;;;4947572;28;20191;-74
2022/08/06 10:06:57;;;;;;;1.17;1.02;;;22.00;92.30;;;;;;4979146;28;20174;-74
2022/08/06 10:09:24;;;;;;;2.85;1.75;;;21.60;91.70;;;;;;4979195;28;20195;-74
2022/08/06 10:11:49;;;;;;;2.60;2.08;;;21.90;93.90;;;;;;4979153;28;20226;-74
2022/08/06 10:14:39;;;;;;;2.30;2.10;;;22.20;91.50;;;;;;4996607;28;20633;-74
2022/08/06 10:17:10;;;;;;;2.33;0.88;;;22.00;92.80;;;;;;4979305;28;20270;-74
2022/08/06 10:19:38;;;;;;;3.90;3.42;;;22.70;90.60;;;;;;4978851;28;20275;-75
2022/08/06 10:22:17;;;;;;;2.22;1.70;;;22.90;87.30;;;;;;4947195;28;20180;-74
2022/08/06 10:24:45;;;;;;;7.88;6.45;;;22.80;79.80;;;;;;4947567;28;20229;-75
2022/08/06 10:27:13;;;;;;;2.97;1.63;;;23.10;90.00;;;;;;4979012;28;20211;-75
2022/08/06 10:29:50;;;;;;;5.45;3.65;;;23.50;91.10;;;;;;4963066;28;20210;-76
2022/08/06 10:32:24;;;;;;;4.65;2.03;;;23.80;86.90;;;;;;4964229;28;20198;-75
2022/08/06 10:34:53;;;;;;;3.15;2.17;;;23.90;74.90;;;;;;4979236;28;20234;-76
2022/08/06 10:37:19;;;;;;;3.20;2.30;;;24.00;77.50;;;;;;4962402;28;20175;-75
2022/08/06 10:39:58;;;;;;;3.15;2.67;;;24.10;75.60;;;;;;4962826;28;20231;-77
2022/08/06 10:42:24;;;;;;;3.28;2.50;;;23.90;75.30;;;;;;4963705;28;20182;-77
2022/08/06 10:44:51;;;;;;;3.17;2.60;;;23.80;73.30;;;;;;4979147;28;20222;-75
2022/08/06 10:47:17;;;;;;;5.03;4.53;;;24.00;71.80;;;;;;4996188;28;20176;-77
2022/08/06 10:49:44;;;;;;;7.88;5.47;;;24.20;69.60;;;;;;4978770;28;20199;-76
2022/08/06 10:52:11;;;;;;;1.73;1.30;;;24.50;70.60;;;;;;4978769;28;20286;-75
2022/08/06 10:54:37;;;;;;;1.52;1.00;;;24.30;67.20;;;;;;4978566;28;20235;-75
2022/08/06 10:57:03;;;;;;;2.08;1.08;;;23.90;66.90;;;;;;4978269;28;20172;-75
2022/08/06 10:59:28;;;;;;;0.75;0.70;;;24.20;68.10;;;;;;4946470;28;20196;-75
2022/08/06 11:02:00;;;;;;;1.05;0.65;;;24.10;66.00;;;;;;4962530;28;20199;-74
2022/08/06 11:04:55;;;;;;;0.82;0.73;;;23.90;62.50;;;;;;4978076;28;20176;-76
2022/08/06 11:07:21;;;;;;;0.50;0.50;;;24.20;63.40;;;;;;4977816;28;20168;-75
2022/08/06 11:10:17;;;;;;;1.75;0.80;;;24.10;60.10;;;;;;4978007;28;20253;-76
2022/08/06 11:12:52;;;;;;;0.85;0.65;;;24.20;63.20;;;;;;4978196;28;20188;-75
2022/08/06 11:15:19;;;;;;;0.80;0.60;;;24.50;57.60;;;;;;4978158;28;20258;-75
2022/08/06 11:17:51;;;;;;;0.65;0.60;;;24.20;55.20;;;;;;4962196;28;20187;-76
2022/08/06 11:20:40;;;;;;;0.70;0.70;;;24.40;58.90;;;;;;4978061;28;20211;-77
2022/08/06 11:23:12;;;;;;;0.57;0.50;;;24.30;61.40;;;;;;4978162;28;20168;-77
2022/08/06 11:25:43;;;;;;;0.70;0.70;;;24.80;56.70;;;;;;4995560;28;20243;-77
2022/08/06 11:28:11;;;;;;;0.63;0.63;;;24.70;58.00;;;;;;4946130;28;20184;-76
2022/08/06 11:30:45;;;;;;;2.03;0.60;;;24.90;59.10;;;;;;4961785;28;20207;-77
2022/08/06 11:33:13;;;;;;;1.05;0.95;;;24.80;55.80;;;;;;4962928;28;20273;-76
2022/08/06 11:35:40;;;;;;;0.77;0.60;;;24.80;57.70;;;;;;4945820;28;20183;-77
2022/08/06 11:38:07;;;;;;;1.38;0.65;;;24.90;55.10;;;;;;4961764;28;20184;-76
2022/08/06 11:40:56;;;;;;;0.75;0.70;;;24.90;57.00;;;;;;4977804;28;20188;-76
2022/08/06 11:43:40;;;;;;;0.60;0.60;;;25.00;57.30;;;;;;4977904;28;20661;-76
2022/08/06 11:46:28;;;;;;;1.05;0.60;;;25.00;57.10;;;;;;4977423;28;20185;-75
2022/08/06 11:49:00;;;;;;;0.60;0.60;;;25.00;54.70;;;;;;4977677;28;20662;-75
2022/08/06 11:51:42;;;;;;;1.25;0.57;;;25.20;56.20;;;;;;4977317;28;20547;-75
2022/08/06 11:54:21;;;;;;;0.73;0.60;;;25.00;57.10;;;;;;4961344;28;20180;-76
2022/08/06 11:57:06;;;;;;;1.80;0.77;;;25.10;55.60;;;;;;4977245;28;20641;-76
2022/08/06 11:59:34;;;;;;;1.33;0.60;;;25.00;52.50;;;;;;4977115;28;20253;-75
2022/08/06 12:02:05;;;;;;;1.50;0.68;;;25.20;54.30;;;;;;4961439;28;20219;-76
2022/08/06 12:04:36;;;;;;;0.70;0.70;;;25.40;55.70;;;;;;4945654;28;20168;-75
2022/08/06 12:07:18;;;;;;;0.50;0.50;;;25.60;53.30;;;;;;4976980;28;20214;-76
2022/08/06 12:09:45;;;;;;;0.90;0.57;;;25.50;50.90;;;;;;4977109;28;20214;-76
2022/08/06 12:12:23;;;;;;;0.40;0.40;;;25.50;52.70;;;;;;4977303;28;20226;-76
2022/08/06 12:14:49;;;;;;;0.52;0.52;;;25.50;48.40;;;;;;4977045;28;20175;-76
2022/08/06 12:17:16;;;;;;;0.70;0.68;;;25.50;51.70;;;;;;4960426;28;20175;-76
2022/08/06 12:19:48;;;;;;;2.35;0.80;;;25.30;48.90;;;;;;5000631;23;20249;-75
2022/08/06 12:22:15;;;;;;;0.75;0.60;;;25.60;49.10;;;;;;4977790;28;20246;-76
2022/08/06 12:24:44;;;;;;;1.23;0.50;;;25.90;50.60;;;;;;4977389;28;20187;-75
2022/08/06 12:27:15;;;;;;;0.98;0.65;;;26.20;48.00;;;;;;4960767;28;20176;-75
2022/08/06 12:29:41;;;;;;;0.70;0.70;;;26.00;49.00;;;;;;4970680;28;20192;-75
2022/08/06 12:32:23;;;;;;;0.77;0.73;;;25.70;49.20;;;;;;4973491;28;20200;-75
2022/08/06 12:34:51;;;;;;;1.17;0.60;;;26.00;50.30;;;;;;4957617;28;20179;-75
2022/08/06 12:37:17;;;;;;;2.42;0.77;;;26.40;52.70;;;;;;4973843;28;20176;-75
2022/08/06 12:42:30;;;;;;;0.60;0.60;;;26.70;48.20;;;;;;4974396;28;20171;-75
2022/08/06 12:44:56;;;;;;;0.50;0.50;;;26.80;45.90;;;;;;4957168;28;20238;-75
2022/08/06 12:47:22;;;;;;;0.80;0.60;;;26.50;45.00;;;;;;4974219;28;20187;-75
2022/08/06 12:49:48;;;;;;;2.10;0.60;;;26.20;46.90;;;;;;4941100;28;20208;-75
2022/08/06 12:52:17;;;;;;;0.88;0.55;;;26.40;48.60;;;;;;4956967;28;20221;-75
2022/08/06 12:54:43;;;;;;;0.85;0.70;;;26.00;44.50;;;;;;4957617;28;20204;-75
2022/08/06 12:57:19;;;;;;;1.20;0.60;;;26.20;46.70;;;;;;4957650;28;20200;-75
2022/08/06 12:59:45;;;;;;;0.70;0.70;;;26.60;47.70;;;;;;4956551;28;20195;-75
2022/08/06 13:02:12;;;;;;;1.33;0.52;;;26.90;47.60;;;;;;4958100;28;20180;-75
2022/08/06 13:04:41;;;;;;;1.23;0.52;;;26.70;44.10;;;;;;4939393;29;20268;-77
2022/08/06 13:07:07;;;;;;;1.10;0.80;;;26.50;45.80;;;;;;4939784;29;20177;-77
2022/08/06 13:09:34;;;;;;;0.57;0.52;;;26.80;44.90;;;;;;4956176;28;20244;-77
2022/08/06 13:12:11;;;;;;;0.40;0.40;;;27.10;44.90;;;;;;4956885;29;20267;-77
2022/08/06 13:14:48;;;;;;;0.60;0.50;;;27.00;41.00;;;;;;4942374;28;20183;-77
2022/08/06 13:17:14;;;;;;;2.03;0.60;;;27.20;44.20;;;;;;4954924;29;20177;-77